sensor_id;sensor_type;location;lat;lon;timestamp;temperature;humidity
54202;DHT22;40108;53.152;5.844;2024-01-10T00:01:56;-3273.60;86.00
54202;DHT22;40108;53.152;5.844;2024-01-10T00:04:21;-3273.60;86.00
54202;DHT22;40108;53.152;5.844;2024-01-10T00:06:47;-3273.50;85.90
54202;DHT22;40108;53.152;5.844;2024-01-10T00:09:13;-3273.60;86.00
54202;DHT22;40108;53.152;5.844;2024-01-10T00:11:38;-3273.50;86.00
54202;DHT22;40108;53.152;5.844;2024-01-10T00:14:04;-3273.40;86.00
54202;DHT22;40108;53.152;5.844;2024-01-10T00:16:30;-3273.40;86.00
54202;DHT22;40108;53.152;5.844;2024-01-10T00:18:56;-3273.40;85.90
54202;DHT22;40108;53.152;5.844;2024-01-10T00:21:21;-3273.40;85.70
54202;DHT22;40108;53.152;5.844;2024-01-10T00:23:47;-3273.40;85.70
54202;DHT22;40108;53.152;5.844;2024-01-10T00:26:13;-3273.40;85.70
54202;DHT22;40108;53.152;5.844;2024-01-10T00:28:38;-3273.40;85.80
54202;DHT22;40108;53.152;5.844;2024-01-10T00:31:04;-3273.30;85.80
54202;DHT22;40108;53.152;5.844;2024-01-10T00:33:30;-3273.40;85.90
54202;DHT22;40108;53.152;5.844;2024-01-10T00:35:55;-3273.30;86.00
54202;DHT22;40108;53.152;5.844;2024-01-10T00:38:21;-3273.30;86.10
54202;DHT22;40108;53.152;5.844;2024-01-10T00:40:47;-3273.30;86.20
54202;DHT22;40108;53.152;5.844;2024-01-10T00:43:12;-3273.30;86.30
54202;DHT22;40108;53.152;5.844;2024-01-10T00:45:38;-3273.30;86.50
54202;DHT22;40108;53.152;5.844;2024-01-10T00:48:04;-3273.30;86.60
54202;DHT22;40108;53.152;5.844;2024-01-10T00:50:30;-3273.30;86.80
54202;DHT22;40108;53.152;5.844;2024-01-10T00:52:55;-3273.20;87.00
54202;DHT22;40108;53.152;5.844;2024-01-10T00:55:21;-3273.20;87.20
54202;DHT22;40108;53.152;5.844;2024-01-10T00:57:47;-3273.20;87.30
54202;DHT22;40108;53.152;5.844;2024-01-10T01:00:13;-3273.20;87.40
54202;DHT22;40108;53.152;5.844;2024-01-10T01:02:38;-3273.20;87.50
54202;DHT22;40108;53.152;5.844;2024-01-10T01:05:08;-3273.20;87.60
54202;DHT22;40108;53.152;5.844;2024-01-10T01:07:34;-3273.20;87.60
54202;DHT22;40108;53.152;5.844;2024-01-10T01:09:59;-3273.20;87.50
54202;DHT22;40108;53.152;5.844;2024-01-10T01:12:26;-3273.20;87.60
54202;DHT22;40108;53.152;5.844;2024-01-10T01:14:51;-3273.10;87.70
54202;DHT22;40108;53.152;5.844;2024-01-10T01:17:17;-3273.10;87.80
54202;DHT22;40108;53.152;5.844;2024-01-10T01:19:43;-3273.10;87.80
54202;DHT22;40108;53.152;5.844;2024-01-10T01:22:08;-3273.10;87.80
54202;DHT22;40108;53.152;5.844;2024-01-10T01:24:34;-3273.10;87.80
54202;DHT22;40108;53.152;5.844;2024-01-10T01:27:00;-3273.10;87.90
54202;DHT22;40108;53.152;5.844;2024-01-10T01:29:25;-3273.10;87.90
54202;DHT22;40108;53.152;5.844;2024-01-10T01:31:51;-3273.20;88.20
54202;DHT22;40108;53.152;5.844;2024-01-10T01:34:18;-3273.20;88.10
54202;DHT22;40108;53.152;5.844;2024-01-10T01:36:43;-3273.10;88.20
54202;DHT22;40108;53.152;5.844;2024-01-10T01:39:09;-3273.10;88.30
54202;DHT22;40108;53.152;5.844;2024-01-10T01:41:35;-3273.10;88.30
54202;DHT22;40108;53.152;5.844;2024-01-10T01:44:00;-3273.10;88.20
54202;DHT22;40108;53.152;5.844;2024-01-10T01:46:27;-3273.10;88.20
54202;DHT22;40108;53.152;5.844;2024-01-10T01:48:53;-3273.10;88.30
54202;DHT22;40108;53.152;5.844;2024-01-10T01:51:20;-3273.10;88.40
54202;DHT22;40108;53.152;5.844;2024-01-10T01:53:48;-3273.10;88.40
54202;DHT22;40108;53.152;5.844;2024-01-10T01:56:15;-3273.20;88.30
54202;DHT22;40108;53.152;5.844;2024-01-10T01:58:43;-3273.20;88.20
54202;DHT22;40108;53.152;5.844;2024-01-10T02:01:10;-3273.10;88.10
54202;DHT22;40108;53.152;5.844;2024-01-10T02:03:37;-3273.10;87.90
54202;DHT22;40108;53.152;5.844;2024-01-10T02:06:03;-3273.10;87.90
54202;DHT22;40108;53.152;5.844;2024-01-10T02:08:35;-3273.20;87.80
54202;DHT22;40108;53.152;5.844;2024-01-10T02:11:02;-3273.10;87.70
54202;DHT22;40108;53.152;5.844;2024-01-10T02:13:29;-3273.10;87.60
54202;DHT22;40108;53.152;5.844;2024-01-10T02:15:55;-3273.10;87.30
54202;DHT22;40108;53.152;5.844;2024-01-10T02:18:21;-3273.20;87.20
54202;DHT22;40108;53.152;5.844;2024-01-10T02:20:47;-3273.20;87.20
54202;DHT22;40108;53.152;5.844;2024-01-10T02:23:13;-3273.10;87.10
54202;DHT22;40108;53.152;5.844;2024-01-10T02:25:40;-3273.20;87.10
54202;DHT22;40108;53.152;5.844;2024-01-10T02:28:06;-3273.10;87.00
54202;DHT22;40108;53.152;5.844;2024-01-10T02:30:33;-3273.10;87.00
54202;DHT22;40108;53.152;5.844;2024-01-10T02:32:58;-3273.20;86.90
54202;DHT22;40108;53.152;5.844;2024-01-10T02:35:24;-3273.10;86.90
54202;DHT22;40108;53.152;5.844;2024-01-10T02:37:50;-3273.10;86.90
54202;DHT22;40108;53.152;5.844;2024-01-10T02:40:17;-3273.20;86.90
54202;DHT22;40108;53.152;5.844;2024-01-10T02:42:42;-3273.10;87.00
54202;DHT22;40108;53.152;5.844;2024-01-10T02:45:09;-3273.10;87.20
54202;DHT22;40108;53.152;5.844;2024-01-10T02:47:34;-3273.10;87.10
54202;DHT22;40108;53.152;5.844;2024-01-10T02:50:02;-3273.20;87.00
54202;DHT22;40108;53.152;5.844;2024-01-10T02:52:27;-3273.10;86.80
54202;DHT22;40108;53.152;5.844;2024-01-10T02:54:53;-3273.20;86.70
54202;DHT22;40108;53.152;5.844;2024-01-10T02:57:19;-3273.20;86.60
54202;DHT22;40108;53.152;5.844;2024-01-10T02:59:44;-3273.20;86.60
54202;DHT22;40108;53.152;5.844;2024-01-10T03:02:10;-3273.20;86.50
54202;DHT22;40108;53.152;5.844;2024-01-10T03:04:35;-3273.20;86.40
54202;DHT22;40108;53.152;5.844;2024-01-10T03:07:01;-3273.20;86.30
54202;DHT22;40108;53.152;5.844;2024-01-10T03:09:27;-3273.20;86.20
54202;DHT22;40108;53.152;5.844;2024-01-10T03:11:52;-3273.20;86.10
54202;DHT22;40108;53.152;5.844;2024-01-10T03:14:18;-3273.20;85.90
54202;DHT22;40108;53.152;5.844;2024-01-10T03:16:44;-3273.20;85.80
54202;DHT22;40108;53.152;5.844;2024-01-10T03:19:09;-3273.20;85.80
54202;DHT22;40108;53.152;5.844;2024-01-10T03:21:35;-3273.20;85.50
54202;DHT22;40108;53.152;5.844;2024-01-10T03:24:01;-3273.20;85.60
54202;DHT22;40108;53.152;5.844;2024-01-10T03:26:28;-3273.20;85.60
54202;DHT22;40108;53.152;5.844;2024-01-10T03:28:54;-3273.20;85.60
54202;DHT22;40108;53.152;5.844;2024-01-10T03:31:20;-3273.20;85.60
54202;DHT22;40108;53.152;5.844;2024-01-10T03:33:45;-3273.10;85.60
54202;DHT22;40108;53.152;5.844;2024-01-10T03:36:13;-3273.10;85.60
54202;DHT22;40108;53.152;5.844;2024-01-10T03:38:39;-3273.10;85.50
54202;DHT22;40108;53.152;5.844;2024-01-10T03:41:05;-3273.20;85.50
54202;DHT22;40108;53.152;5.844;2024-01-10T03:43:31;-3273.10;85.50
54202;DHT22;40108;53.152;5.844;2024-01-10T03:45:57;-3273.10;85.60
54202;DHT22;40108;53.152;5.844;2024-01-10T03:48:23;-3273.10;85.70
54202;DHT22;40108;53.152;5.844;2024-01-10T03:50:49;-3273.10;85.70
54202;DHT22;40108;53.152;5.844;2024-01-10T03:53:15;-3273.10;85.80
54202;DHT22;40108;53.152;5.844;2024-01-10T03:55:40;-3273.10;85.90
54202;DHT22;40108;53.152;5.844;2024-01-10T03:58:06;-3273.10;86.00
54202;DHT22;40108;53.152;5.844;2024-01-10T04:00:32;-3273.00;86.10
54202;DHT22;40108;53.152;5.844;2024-01-10T04:02:58;-3273.00;86.20
54202;DHT22;40108;53.152;5.844;2024-01-10T04:05:23;-3273.00;86.20
54202;DHT22;40108;53.152;5.844;2024-01-10T04:07:51;-3273.00;86.50
54202;DHT22;40108;53.152;5.844;2024-01-10T04:10:17;-3272.90;86.70
54202;DHT22;40108;53.152;5.844;2024-01-10T04:12:44;-3272.90;86.60
54202;DHT22;40108;53.152;5.844;2024-01-10T04:15:10;-3272.90;86.60
54202;DHT22;40108;53.152;5.844;2024-01-10T04:17:37;-3272.90;86.50
54202;DHT22;40108;53.152;5.844;2024-01-10T04:20:03;-3272.90;86.50
54202;DHT22;40108;53.152;5.844;2024-01-10T04:22:29;-3272.90;86.40
54202;DHT22;40108;53.152;5.844;2024-01-10T04:24:59;-3272.90;86.20
54202;DHT22;40108;53.152;5.844;2024-01-10T04:27:25;-3272.90;85.90
54202;DHT22;40108;53.152;5.844;2024-01-10T04:29:51;-3273.00;85.50
54202;DHT22;40108;53.152;5.844;2024-01-10T04:32:17;-3273.00;85.30
54202;DHT22;40108;53.152;5.844;2024-01-10T04:34:42;-3273.00;85.20
54202;DHT22;40108;53.152;5.844;2024-01-10T04:37:08;-3273.10;85.20
54202;DHT22;40108;53.152;5.844;2024-01-10T04:39:34;-3273.00;85.20
54202;DHT22;40108;53.152;5.844;2024-01-10T04:42:00;-3273.10;85.30
54202;DHT22;40108;53.152;5.844;2024-01-10T04:44:26;-3273.10;85.30
54202;DHT22;40108;53.152;5.844;2024-01-10T04:46:52;-3273.10;85.20
54202;DHT22;40108;53.152;5.844;2024-01-10T04:49:17;-3273.00;85.30
54202;DHT22;40108;53.152;5.844;2024-01-10T04:51:43;-3273.00;85.20
54202;DHT22;40108;53.152;5.844;2024-01-10T04:54:09;-3273.00;85.30
54202;DHT22;40108;53.152;5.844;2024-01-10T04:56:35;-3273.00;85.30
54202;DHT22;40108;53.152;5.844;2024-01-10T04:59:04;-3273.00;85.30
54202;DHT22;40108;53.152;5.844;2024-01-10T05:01:31;-3273.00;85.40
54202;DHT22;40108;53.152;5.844;2024-01-10T05:03:57;-3273.00;85.50
54202;DHT22;40108;53.152;5.844;2024-01-10T05:06:23;-3273.00;85.50
54202;DHT22;40108;53.152;5.844;2024-01-10T05:08:49;-3273.00;85.50
54202;DHT22;40108;53.152;5.844;2024-01-10T05:11:15;-3273.00;85.50
54202;DHT22;40108;53.152;5.844;2024-01-10T05:13:42;-3273.00;85.50
54202;DHT22;40108;53.152;5.844;2024-01-10T05:16:08;-3273.00;85.50
54202;DHT22;40108;53.152;5.844;2024-01-10T05:18:33;-3273.00;85.60
54202;DHT22;40108;53.152;5.844;2024-01-10T05:21:00;-3273.00;85.80
54202;DHT22;40108;53.152;5.844;2024-01-10T05:23:26;-3273.00;85.80
54202;DHT22;40108;53.152;5.844;2024-01-10T05:25:51;-3273.00;86.10
54202;DHT22;40108;53.152;5.844;2024-01-10T05:28:17;-3273.00;86.30
54202;DHT22;40108;53.152;5.844;2024-01-10T05:30:43;-3273.00;86.60
54202;DHT22;40108;53.152;5.844;2024-01-10T05:33:09;-3273.00;86.80
54202;DHT22;40108;53.152;5.844;2024-01-10T05:35:39;-3273.00;86.80
54202;DHT22;40108;53.152;5.844;2024-01-10T05:38:05;-3273.10;86.80
54202;DHT22;40108;53.152;5.844;2024-01-10T05:40:31;-3273.00;86.80
54202;DHT22;40108;53.152;5.844;2024-01-10T05:42:57;-3273.00;86.90
54202;DHT22;40108;53.152;5.844;2024-01-10T05:45:25;-3273.00;86.90
54202;DHT22;40108;53.152;5.844;2024-01-10T05:47:51;-3273.10;87.10
54202;DHT22;40108;53.152;5.844;2024-01-10T05:50:16;-3273.00;87.10
54202;DHT22;40108;53.152;5.844;2024-01-10T05:52:42;-3273.00;87.20
54202;DHT22;40108;53.152;5.844;2024-01-10T05:55:09;-3273.10;87.20
54202;DHT22;40108;53.152;5.844;2024-01-10T05:57:38;-3273.10;87.30
54202;DHT22;40108;53.152;5.844;2024-01-10T06:00:05;-3273.00;87.30
54202;DHT22;40108;53.152;5.844;2024-01-10T06:02:38;-3273.00;87.30
54202;DHT22;40108;53.152;5.844;2024-01-10T06:05:09;-3273.10;87.40
54202;DHT22;40108;53.152;5.844;2024-01-10T06:07:38;-3273.00;87.40
54202;DHT22;40108;53.152;5.844;2024-01-10T06:10:05;-3273.00;87.50
54202;DHT22;40108;53.152;5.844;2024-01-10T06:12:31;-3273.00;87.50
54202;DHT22;40108;53.152;5.844;2024-01-10T06:14:56;-3272.90;87.70
54202;DHT22;40108;53.152;5.844;2024-01-10T06:17:23;-3273.00;87.90
54202;DHT22;40108;53.152;5.844;2024-01-10T06:19:49;-3273.00;88.10
54202;DHT22;40108;53.152;5.844;2024-01-10T06:22:15;-3273.00;88.20
54202;DHT22;40108;53.152;5.844;2024-01-10T06:24:45;-3272.90;88.20
54202;DHT22;40108;53.152;5.844;2024-01-10T06:27:10;-3272.90;88.10
54202;DHT22;40108;53.152;5.844;2024-01-10T06:29:36;-3273.00;88.10
54202;DHT22;40108;53.152;5.844;2024-01-10T06:32:05;-3272.90;88.10
54202;DHT22;40108;53.152;5.844;2024-01-10T06:34:32;-3272.90;88.00
54202;DHT22;40108;53.152;5.844;2024-01-10T06:36:58;-3273.00;88.10
54202;DHT22;40108;53.152;5.844;2024-01-10T06:39:24;-3272.90;88.00
54202;DHT22;40108;53.152;5.844;2024-01-10T06:41:50;-3272.90;88.00
54202;DHT22;40108;53.152;5.844;2024-01-10T06:44:16;-3272.90;88.00
54202;DHT22;40108;53.152;5.844;2024-01-10T06:46:45;-3272.90;88.10
54202;DHT22;40108;53.152;5.844;2024-01-10T06:49:11;-3272.90;88.20
54202;DHT22;40108;53.152;5.844;2024-01-10T06:51:36;-3272.80;88.20
54202;DHT22;40108;53.152;5.844;2024-01-10T06:54:02;-3272.80;88.40
54202;DHT22;40108;53.152;5.844;2024-01-10T06:56:33;-3272.80;88.70
54202;DHT22;40108;53.152;5.844;2024-01-10T06:58:59;-3272.80;88.60
54202;DHT22;40108;53.152;5.844;2024-01-10T07:01:26;-3272.80;88.40
54202;DHT22;40108;53.152;5.844;2024-01-10T07:03:52;-3272.80;88.60
54202;DHT22;40108;53.152;5.844;2024-01-10T07:06:18;-3272.90;88.70
54202;DHT22;40108;53.152;5.844;2024-01-10T07:08:44;-3272.80;88.80
54202;DHT22;40108;53.152;5.844;2024-01-10T07:11:12;-3272.90;88.80
54202;DHT22;40108;53.152;5.844;2024-01-10T07:13:39;-3272.80;88.70
54202;DHT22;40108;53.152;5.844;2024-01-10T07:16:05;-3272.80;88.60
54202;DHT22;40108;53.152;5.844;2024-01-10T07:18:31;-3272.80;88.60
54202;DHT22;40108;53.152;5.844;2024-01-10T07:20:57;-3272.80;88.60
54202;DHT22;40108;53.152;5.844;2024-01-10T07:23:22;-3272.80;88.50
54202;DHT22;40108;53.152;5.844;2024-01-10T07:25:49;-3272.80;88.60
54202;DHT22;40108;53.152;5.844;2024-01-10T07:28:18;-3272.80;88.70
54202;DHT22;40108;53.152;5.844;2024-01-10T07:30:45;-3272.80;88.80
54202;DHT22;40108;53.152;5.844;2024-01-10T07:33:11;-3272.90;89.00
54202;DHT22;40108;53.152;5.844;2024-01-10T07:35:37;-3272.80;89.20
54202;DHT22;40108;53.152;5.844;2024-01-10T07:38:06;-3272.80;89.30
54202;DHT22;40108;53.152;5.844;2024-01-10T07:40:35;-3272.90;89.40
54202;DHT22;40108;53.152;5.844;2024-01-10T07:43:01;-3272.80;89.50
54202;DHT22;40108;53.152;5.844;2024-01-10T07:45:28;-3272.90;89.60
54202;DHT22;40108;53.152;5.844;2024-01-10T07:47:54;-3272.80;89.60
54202;DHT22;40108;53.152;5.844;2024-01-10T07:50:20;-3272.90;89.60
54202;DHT22;40108;53.152;5.844;2024-01-10T07:52:46;-3272.90;89.40
54202;DHT22;40108;53.152;5.844;2024-01-10T07:55:12;-3272.90;89.50
54202;DHT22;40108;53.152;5.844;2024-01-10T07:57:38;-3272.90;89.20
54202;DHT22;40108;53.152;5.844;2024-01-10T08:00:07;-3272.90;88.90
54202;DHT22;40108;53.152;5.844;2024-01-10T08:02:36;-3272.90;88.90
54202;DHT22;40108;53.152;5.844;2024-01-10T08:05:06;-3272.90;88.70
54202;DHT22;40108;53.152;5.844;2024-01-10T08:07:35;-3272.90;88.50
54202;DHT22;40108;53.152;5.844;2024-01-10T08:10:05;-3272.90;88.30
54202;DHT22;40108;53.152;5.844;2024-01-10T08:12:30;-3272.90;87.70
54202;DHT22;40108;53.152;5.844;2024-01-10T08:14:56;-3272.90;87.00
54202;DHT22;40108;53.152;5.844;2024-01-10T08:17:22;-3272.90;86.80
54202;DHT22;40108;53.152;5.844;2024-01-10T08:19:49;-3273.00;86.00
54202;DHT22;40108;53.152;5.844;2024-01-10T08:22:14;-3273.00;85.80
54202;DHT22;40108;53.152;5.844;2024-01-10T08:24:40;-3273.00;85.40
54202;DHT22;40108;53.152;5.844;2024-01-10T08:27:06;-3273.00;85.50
54202;DHT22;40108;53.152;5.844;2024-01-10T08:29:31;-3273.00;85.30
54202;DHT22;40108;53.152;5.844;2024-01-10T08:31:57;-3273.10;85.10
54202;DHT22;40108;53.152;5.844;2024-01-10T08:34:24;-3273.10;85.30
54202;DHT22;40108;53.152;5.844;2024-01-10T08:36:49;-3273.10;84.90
54202;DHT22;40108;53.152;5.844;2024-01-10T08:39:18;-3273.10;84.90
54202;DHT22;40108;53.152;5.844;2024-01-10T08:41:44;-3273.10;84.80
54202;DHT22;40108;53.152;5.844;2024-01-10T08:44:10;-3273.10;84.60
54202;DHT22;40108;53.152;5.844;2024-01-10T08:46:36;-3273.20;84.20
54202;DHT22;40108;53.152;5.844;2024-01-10T08:49:02;-3273.20;83.80
54202;DHT22;40108;53.152;5.844;2024-01-10T08:51:28;-3273.20;83.80
54202;DHT22;40108;53.152;5.844;2024-01-10T08:53:54;-3273.30;83.60
54202;DHT22;40108;53.152;5.844;2024-01-10T08:56:20;-3273.30;83.70
54202;DHT22;40108;53.152;5.844;2024-01-10T08:58:46;-3273.40;83.20
54202;DHT22;40108;53.152;5.844;2024-01-10T09:01:11;-3273.40;83.10
54202;DHT22;40108;53.152;5.844;2024-01-10T09:03:37;-3273.40;83.00
54202;DHT22;40108;53.152;5.844;2024-01-10T09:06:06;-3273.50;83.00
54202;DHT22;40108;53.152;5.844;2024-01-10T09:08:33;-3273.50;82.40
54202;DHT22;40108;53.152;5.844;2024-01-10T09:10:59;-3273.60;81.90
54202;DHT22;40108;53.152;5.844;2024-01-10T09:13:25;-3273.70;82.30
54202;DHT22;40108;53.152;5.844;2024-01-10T09:15:50;-3273.70;81.80
54202;DHT22;40108;53.152;5.844;2024-01-10T09:18:16;-3273.80;82.00
54202;DHT22;40108;53.152;5.844;2024-01-10T09:20:42;-3273.90;82.30
54202;DHT22;40108;53.152;5.844;2024-01-10T09:23:07;-3274.00;82.40
54202;DHT22;40108;53.152;5.844;2024-01-10T09:25:33;-3274.20;81.30
54202;DHT22;40108;53.152;5.844;2024-01-10T09:27:59;-3274.30;80.20
54202;DHT22;40108;53.152;5.844;2024-01-10T09:30:24;-3274.40;78.90
54202;DHT22;40108;53.152;5.844;2024-01-10T09:32:50;-3274.50;78.80
54202;DHT22;40108;53.152;5.844;2024-01-10T09:35:16;-3274.70;79.40
54202;DHT22;40108;53.152;5.844;2024-01-10T09:37:43;-3274.90;77.60
54202;DHT22;40108;53.152;5.844;2024-01-10T09:40:14;-3274.90;75.20
54202;DHT22;40108;53.152;5.844;2024-01-10T09:42:40;-3275.10;76.30
54202;DHT22;40108;53.152;5.844;2024-01-10T09:45:06;-3275.10;76.00
54202;DHT22;40108;53.152;5.844;2024-01-10T09:47:36;-3275.30;77.00
54202;DHT22;40108;53.152;5.844;2024-01-10T09:50:02;-3275.40;74.90
54202;DHT22;40108;53.152;5.844;2024-01-10T09:52:34;-3275.50;75.60
54202;DHT22;40108;53.152;5.844;2024-01-10T09:55:04;-3275.60;74.40
54202;DHT22;40108;53.152;5.844;2024-01-10T09:57:30;-3275.60;74.40
54202;DHT22;40108;53.152;5.844;2024-01-10T09:59:56;-3275.60;73.80
54202;DHT22;40108;53.152;5.844;2024-01-10T10:02:23;-3275.60;74.20
54202;DHT22;40108;53.152;5.844;2024-01-10T10:05:11;-3275.60;73.40
54202;DHT22;40108;53.152;5.844;2024-01-10T10:07:47;-3275.60;73.90
54202;DHT22;40108;53.152;5.844;2024-01-10T10:10:14;-3275.50;72.80
54202;DHT22;40108;53.152;5.844;2024-01-10T10:15:14;-3275.70;74.00
54202;DHT22;40108;53.152;5.844;2024-01-10T10:17:42;-3275.70;72.90
54202;DHT22;40108;53.152;5.844;2024-01-10T10:20:13;-3275.80;72.80
54202;DHT22;40108;53.152;5.844;2024-01-10T10:22:40;-3275.80;71.50
54202;DHT22;40108;53.152;5.844;2024-01-10T10:25:07;-3275.90;72.00
54202;DHT22;40108;53.152;5.844;2024-01-10T10:27:36;-3275.90;72.60
54202;DHT22;40108;53.152;5.844;2024-01-10T10:30:02;-3275.90;71.20
54202;DHT22;40108;53.152;5.844;2024-01-10T10:32:30;-3275.90;71.90
54202;DHT22;40108;53.152;5.844;2024-01-10T10:34:56;-3276.00;71.90
54202;DHT22;40108;53.152;5.844;2024-01-10T10:37:22;-3276.00;71.40
54202;DHT22;40108;53.152;5.844;2024-01-10T10:39:47;-3276.10;71.70
54202;DHT22;40108;53.152;5.844;2024-01-10T10:42:14;-3276.10;71.10
54202;DHT22;40108;53.152;5.844;2024-01-10T10:44:40;-3276.20;71.50
54202;DHT22;40108;53.152;5.844;2024-01-10T10:47:10;-3276.30;71.30
54202;DHT22;40108;53.152;5.844;2024-01-10T10:49:44;-3276.20;69.40
54202;DHT22;40108;53.152;5.844;2024-01-10T10:52:11;-3276.20;69.40
54202;DHT22;40108;53.152;5.844;2024-01-10T10:54:37;-3276.20;70.90
54202;DHT22;40108;53.152;5.844;2024-01-10T10:57:04;-3276.30;70.40
54202;DHT22;40108;53.152;5.844;2024-01-10T10:59:34;-3276.40;69.80
54202;DHT22;40108;53.152;5.844;2024-01-10T11:02:01;-3276.50;71.10
54202;DHT22;40108;53.152;5.844;2024-01-10T11:04:27;-3276.60;69.80
54202;DHT22;40108;53.152;5.844;2024-01-10T11:06:53;-3276.60;68.40
54202;DHT22;40108;53.152;5.844;2024-01-10T11:09:20;-3276.60;69.00
54202;DHT22;40108;53.152;5.844;2024-01-10T11:18:23;0.00;68.80
54202;DHT22;40108;53.152;5.844;2024-01-10T11:21:33;0.20;69.80
54202;DHT22;40108;53.152;5.844;2024-01-10T11:24:04;0.40;69.50
54202;DHT22;40108;53.152;5.844;2024-01-10T11:26:32;0.50;67.30
54202;DHT22;40108;53.152;5.844;2024-01-10T11:28:58;0.50;67.00
54202;DHT22;40108;53.152;5.844;2024-01-10T11:31:30;0.50;66.90
54202;DHT22;40108;53.152;5.844;2024-01-10T11:34:00;0.50;67.20
54202;DHT22;40108;53.152;5.844;2024-01-10T11:36:26;0.50;66.40
54202;DHT22;40108;53.152;5.844;2024-01-10T11:41:33;0.40;66.60
54202;DHT22;40108;53.152;5.844;2024-01-10T11:46:37;0.30;66.30
54202;DHT22;40108;53.152;5.844;2024-01-10T11:49:06;0.20;66.40
54202;DHT22;40108;53.152;5.844;2024-01-10T11:51:32;0.30;66.40
54202;DHT22;40108;53.152;5.844;2024-01-10T11:53:58;0.30;66.60
54202;DHT22;40108;53.152;5.844;2024-01-10T11:56:41;0.30;66.20
54202;DHT22;40108;53.152;5.844;2024-01-10T11:59:11;0.40;66.80
54202;DHT22;40108;53.152;5.844;2024-01-10T12:01:41;0.40;66.60
54202;DHT22;40108;53.152;5.844;2024-01-10T12:04:07;0.50;67.40
54202;DHT22;40108;53.152;5.844;2024-01-10T12:06:35;0.70;67.60
54202;DHT22;40108;53.152;5.844;2024-01-10T12:09:04;0.70;66.70
54202;DHT22;40108;53.152;5.844;2024-01-10T12:11:41;0.90;67.50
54202;DHT22;40108;53.152;5.844;2024-01-10T12:14:10;0.90;65.80
54202;DHT22;40108;53.152;5.844;2024-01-10T12:16:35;0.80;66.30
54202;DHT22;40108;53.152;5.844;2024-01-10T12:19:02;0.80;66.40
54202;DHT22;40108;53.152;5.844;2024-01-10T12:21:27;0.70;65.60
54202;DHT22;40108;53.152;5.844;2024-01-10T12:23:53;0.80;67.00
54202;DHT22;40108;53.152;5.844;2024-01-10T12:26:19;0.70;64.70
54202;DHT22;40108;53.152;5.844;2024-01-10T12:28:58;0.60;66.10
54202;DHT22;40108;53.152;5.844;2024-01-10T12:31:27;0.50;65.10
54202;DHT22;40108;53.152;5.844;2024-01-10T12:33:54;0.50;65.20
54202;DHT22;40108;53.152;5.844;2024-01-10T12:36:20;0.40;65.90
54202;DHT22;40108;53.152;5.844;2024-01-10T12:38:47;0.40;66.50
54202;DHT22;40108;53.152;5.844;2024-01-10T12:41:15;0.40;66.50
54202;DHT22;40108;53.152;5.844;2024-01-10T12:43:41;0.40;66.30
54202;DHT22;40108;53.152;5.844;2024-01-10T12:46:13;0.40;66.10
54202;DHT22;40108;53.152;5.844;2024-01-10T12:48:42;0.40;65.40
54202;DHT22;40108;53.152;5.844;2024-01-10T12:51:08;0.30;65.10
54202;DHT22;40108;53.152;5.844;2024-01-10T12:53:43;0.30;66.10
54202;DHT22;40108;53.152;5.844;2024-01-10T12:56:10;0.20;65.50
54202;DHT22;40108;53.152;5.844;2024-01-10T12:58:40;0.10;65.20
54202;DHT22;40108;53.152;5.844;2024-01-10T13:01:08;0.10;65.70
54202;DHT22;40108;53.152;5.844;2024-01-10T13:03:35;0.00;66.40
54202;DHT22;40108;53.152;5.844;2024-01-10T13:06:01;0.00;67.40
54202;DHT22;40108;53.152;5.844;2024-01-10T13:08:26;0.10;67.80
54202;DHT22;40108;53.152;5.844;2024-01-10T13:10:52;0.20;67.60
54202;DHT22;40108;53.152;5.844;2024-01-10T13:13:19;0.20;67.50
54202;DHT22;40108;53.152;5.844;2024-01-10T13:15:47;0.10;67.10
54202;DHT22;40108;53.152;5.844;2024-01-10T13:18:13;0.20;68.00
54202;DHT22;40108;53.152;5.844;2024-01-10T13:20:43;0.10;67.50
54202;DHT22;40108;53.152;5.844;2024-01-10T13:23:09;0.10;67.90
54202;DHT22;40108;53.152;5.844;2024-01-10T13:25:36;0.10;69.00
54202;DHT22;40108;53.152;5.844;2024-01-10T13:28:06;0.10;68.10
54202;DHT22;40108;53.152;5.844;2024-01-10T13:30:32;0.10;68.60
54202;DHT22;40108;53.152;5.844;2024-01-10T13:32:58;0.10;68.70
54202;DHT22;40108;53.152;5.844;2024-01-10T13:35:24;0.10;68.40
54202;DHT22;40108;53.152;5.844;2024-01-10T13:37:50;0.00;68.10
54202;DHT22;40108;53.152;5.844;2024-01-10T13:40:15;0.00;68.00
54202;DHT22;40108;53.152;5.844;2024-01-10T13:42:43;0.00;68.70
54202;DHT22;40108;53.152;5.844;2024-01-10T13:45:09;0.00;69.80
54202;DHT22;40108;53.152;5.844;2024-01-10T13:47:38;0.00;70.10
54202;DHT22;40108;53.152;5.844;2024-01-10T13:50:07;0.00;70.10
54202;DHT22;40108;53.152;5.844;2024-01-10T13:52:34;0.00;70.90
54202;DHT22;40108;53.152;5.844;2024-01-10T13:55:00;0.00;71.10
54202;DHT22;40108;53.152;5.844;2024-01-10T13:57:27;-3276.70;71.40
54202;DHT22;40108;53.152;5.844;2024-01-10T13:59:53;-3276.70;71.40
54202;DHT22;40108;53.152;5.844;2024-01-10T14:02:22;-3276.60;71.70
54202;DHT22;40108;53.152;5.844;2024-01-10T14:04:48;-3276.60;72.00
54202;DHT22;40108;53.152;5.844;2024-01-10T14:07:13;-3276.60;71.80
54202;DHT22;40108;53.152;5.844;2024-01-10T14:09:39;-3276.50;71.30
54202;DHT22;40108;53.152;5.844;2024-01-10T14:12:05;-3276.50;71.30
54202;DHT22;40108;53.152;5.844;2024-01-10T14:14:31;-3276.50;71.20
54202;DHT22;40108;53.152;5.844;2024-01-10T14:16:57;-3276.40;70.60
54202;DHT22;40108;53.152;5.844;2024-01-10T14:19:23;-3276.40;70.80
54202;DHT22;40108;53.152;5.844;2024-01-10T14:21:49;-3276.40;71.20
54202;DHT22;40108;53.152;5.844;2024-01-10T14:24:14;-3276.40;71.30
54202;DHT22;40108;53.152;5.844;2024-01-10T14:26:41;-3276.30;71.40
54202;DHT22;40108;53.152;5.844;2024-01-10T14:29:07;-3276.30;71.00
54202;DHT22;40108;53.152;5.844;2024-01-10T14:31:32;-3276.30;71.20
54202;DHT22;40108;53.152;5.844;2024-01-10T14:33:58;-3276.30;71.30
54202;DHT22;40108;53.152;5.844;2024-01-10T14:36:24;-3276.30;71.40
54202;DHT22;40108;53.152;5.844;2024-01-10T14:38:50;-3276.30;71.60
54202;DHT22;40108;53.152;5.844;2024-01-10T14:41:16;-3276.30;70.90
54202;DHT22;40108;53.152;5.844;2024-01-10T14:43:41;-3276.30;71.10
54202;DHT22;40108;53.152;5.844;2024-01-10T14:46:07;-3276.30;71.40
54202;DHT22;40108;53.152;5.844;2024-01-10T14:48:34;-3276.30;71.60
54202;DHT22;40108;53.152;5.844;2024-01-10T14:51:00;-3276.20;71.90
54202;DHT22;40108;53.152;5.844;2024-01-10T14:53:26;-3276.20;72.10
54202;DHT22;40108;53.152;5.844;2024-01-10T14:55:52;-3276.20;72.20
54202;DHT22;40108;53.152;5.844;2024-01-10T14:58:18;-3276.10;72.10
54202;DHT22;40108;53.152;5.844;2024-01-10T15:00:44;-3276.10;72.30
54202;DHT22;40108;53.152;5.844;2024-01-10T15:03:10;-3276.10;72.10
54202;DHT22;40108;53.152;5.844;2024-01-10T15:05:36;-3276.10;72.50
54202;DHT22;40108;53.152;5.844;2024-01-10T15:08:02;-3276.10;72.50
54202;DHT22;40108;53.152;5.844;2024-01-10T15:10:31;-3276.00;72.50